Main page
METAR-TAF:

METAR-TAF

Airports :

Foz do Iguaçu International Airport

Foz do Iguaçu, Paraná, Brazil

latitude: 25-31S, longitude: 054-35W, elevation: 180 m

Current weather observation

The report was made 1 hour and 12 minutes ago, at 14:00 UTC
Wind 9 kt from the South
Temperature 26°C
Humidity 54%
Pressure 1015 hPa
Visibility 10 km or more
no clouds below 1500 m and no cumulonimbus

METAR: SBFI 211400Z 19009KT CAVOK 26/16 Q1015

Time: 12:12 (15:12 UTC)

Forecast

The report was made 5 hours and 42 minutes ago, at 09:30 UTC
Forecast valid from 21 at 12 UTC to 22 at 12 UTC
Wind 5 kt from the South
Visibility 10 km or more
Few clouds at a height of 4000 ft
Becoming
from 21 at 13 UTC to 21 at 15 UTC
Visibility 10 km or more
Few clouds at a height of 3000 ft

TAF: SBFI 210930Z 2112/2212 19005KT 9999 FEW040 TX29/2117Z TN22/2208Z BECMG 2113/2115 9999 FEW030 RMK PDZ

Weather observations and forecasts of more than 4000 airports (METAR and TAF reports).

The available stations are represented by yellow and red dots on the map.

Hover mouse over dot to see the name of the station.

Then click to see weather observations and forecasts.

To change the map : click on the green buttons with a black cross to zoom in, on the green button with a dash to zoom out, or on the green arrows for adjacent maps.


METAR-TAF: